Time;durP1;ratioP1;P1;durP2;ratioP2;P2;SDS_P1;SDS_P2;PMS_P1;PMS_P2;Temp;Humidity;BMP_temperature;BMP_pressure;BME280_temperature;BME280_humidity;BME280_pressure;Samples;Min_cycle;Max_cycle;Signal;HPM_P1;HPM_P2
2024/01/02 00:01:01;;;;;;;0.80;0.80;;;;;;;10.00;79.67;99458.28;4964901;28;20022;-69
2024/01/02 00:03:26;;;;;;;0.70;0.70;;;;;;;10.02;80.11;99456.44;4951262;28;20053;-69
2024/01/02 00:05:52;;;;;;;0.80;0.80;;;;;;;9.98;79.93;99446.84;4963101;28;20026;-69
2024/01/02 00:08:17;;;;;;;0.80;0.80;;;;;;;10.03;79.74;99441.38;4967784;28;20113;-68
2024/01/02 00:10:43;;;;;;;0.77;0.77;;;;;;;10.03;80.00;99441.38;4965551;28;20046;-69
2024/01/02 00:13:08;;;;;;;0.70;0.70;;;;;;;10.00;79.58;99436.19;4950121;29;20032;-68
2024/01/02 00:15:33;;;;;;;0.70;0.70;;;;;;;10.03;79.02;99426.28;4960650;28;20062;-68
2024/01/02 00:17:59;;;;;;;0.80;0.80;;;;;;;10.12;78.09;99430.41;4937499;28;20022;-68
2024/01/02 00:20:24;;;;;;;0.70;0.70;;;;;;;10.13;78.74;99421.53;4968407;28;20046;-68
2024/01/02 00:22:50;;;;;;;0.80;0.80;;;;;;;10.12;77.92;99425.97;4980826;28;20081;-67
2024/01/02 00:25:15;;;;;;;0.70;0.70;;;;;;;10.16;78.22;99422.28;4982331;28;20746;-67
2024/01/02 00:27:41;;;;;;;0.70;0.70;;;;;;;10.18;77.56;99401.78;4965475;28;20047;-68
2024/01/02 00:30:07;;;;;;;0.60;0.60;;;;;;;9.94;78.27;99356.72;4949521;29;20031;-69
2024/01/02 00:32:33;;;;;;;0.70;0.70;;;;;;;10.18;76.81;99388.50;4950488;29;20641;-69
2024/01/02 00:34:59;;;;;;;0.75;0.75;;;;;;;10.25;77.28;99389.13;4950202;29;20026;-69
2024/01/02 00:37:24;;;;;;;0.75;0.75;;;;;;;10.25;76.69;99368.72;4954602;28;20403;-68
2024/01/02 00:39:49;;;;;;;0.80;0.80;;;;;;;10.29;76.09;99369.47;4969670;28;20034;-68
2024/01/02 00:42:15;;;;;;;0.80;0.80;;;;;;;10.33;76.69;99365.75;4968047;28;20034;-68
2024/01/02 00:44:40;;;;;;;0.70;0.70;;;;;;;10.34;76.87;99357.72;4951769;28;20098;-68
2024/01/02 00:47:07;;;;;;;0.80;0.80;;;;;;;10.30;76.40;99348.13;4966311;28;20042;-68
2024/01/02 00:49:33;;;;;;;0.80;0.80;;;;;;;10.34;76.91;99349.75;4959097;28;20038;-68
2024/01/02 00:51:58;;;;;;;0.70;0.70;;;;;;;10.35;76.44;99340.84;4949114;29;20031;-69
2024/01/02 00:54:23;;;;;;;0.70;0.70;;;;;;;10.37;75.80;99341.66;4948771;28;20056;-68
2024/01/02 00:56:49;;;;;;;0.70;0.70;;;;;;;10.39;75.68;99344.22;4965531;28;20137;-68
2024/01/02 00:59:14;;;;;;;0.80;0.80;;;;;;;10.42;76.32;99323.69;4967974;28;20098;-68
2024/01/02 01:01:40;;;;;;;0.70;0.70;;;;;;;10.40;75.20;99314.06;4957297;28;20044;-68
2024/01/02 01:04:07;;;;;;;0.80;0.80;;;;;;;10.48;76.12;99306.59;4947467;29;20375;-69
2024/01/02 01:06:33;;;;;;;0.70;0.70;;;;;;;10.43;76.07;99293.50;4947759;29;21247;-69
2024/01/02 01:08:58;;;;;;;0.80;0.80;;;;;;;10.53;76.23;99301.94;4957146;28;20062;-69
2024/01/02 01:11:24;;;;;;;0.80;0.80;;;;;;;10.51;76.08;99302.03;4963800;28;20081;-69
2024/01/02 01:13:49;;;;;;;0.70;0.70;;;;;;;10.56;75.81;99296.50;4982719;28;20030;-67
2024/01/02 01:16:15;;;;;;;0.70;0.70;;;;;;;10.58;76.00;99300.81;4966583;28;20093;-68
2024/01/02 01:18:40;;;;;;;0.77;0.77;;;;;;;10.61;75.70;99295.38;4968799;28;20070;-67
2024/01/02 01:21:05;;;;;;;0.70;0.70;;;;;;;10.63;74.75;99289.97;4968293;28;20086;-67
2024/01/02 01:23:31;;;;;;;0.70;0.70;;;;;;;10.68;74.87;99300.41;4968996;28;20502;-63
2024/01/02 01:25:57;;;;;;;0.70;0.70;;;;;;;10.33;74.58;99217.75;4964925;28;20027;-67
2024/01/02 01:28:22;;;;;;;0.70;0.70;;;;;;;10.74;74.79;99292.19;4967965;28;20034;-68
2024/01/02 01:30:48;;;;;;;0.80;0.80;;;;;;;10.78;74.51;99280.44;4964690;28;20699;-68
2024/01/02 01:33:13;;;;;;;0.70;0.70;;;;;;;10.75;75.33;99277.94;4949851;29;20023;-67
2024/01/02 01:35:38;;;;;;;0.70;0.70;;;;;;;10.74;75.07;99271.75;4949306;29;20046;-69
2024/01/02 01:38:04;;;;;;;0.80;0.80;;;;;;;10.82;74.93;99274.06;4968936;28;20015;-68
2024/01/02 01:40:30;;;;;;;0.70;0.70;;;;;;;10.79;74.15;99268.91;4968195;28;20676;-68
2024/01/02 01:42:55;;;;;;;0.70;0.70;;;;;;;10.80;73.58;99259.97;4965827;28;20136;-67
2024/01/02 01:45:20;;;;;;;0.60;0.60;;;;;;;10.81;74.42;99259.91;4950360;28;20043;-68
2024/01/02 01:47:46;;;;;;;0.60;0.60;;;;;;;10.80;73.34;99262.63;4948126;29;20075;-67
2024/01/02 01:50:13;;;;;;;0.75;0.75;;;;;;;10.46;74.21;99205.66;4961215;28;20046;-67
2024/01/02 01:52:41;;;;;;;0.70;0.70;;;;;;;10.85;73.78;99252.66;4966514;28;20577;-68
2024/01/02 01:55:06;;;;;;;0.75;0.75;;;;;;;10.82;74.48;99236.81;4966982;28;20094;-68
2024/01/02 01:57:32;;;;;;;0.77;0.77;;;;;;;10.82;73.80;99242.16;4965161;28;20019;-67
2024/01/02 01:59:58;;;;;;;0.70;0.70;;;;;;;10.83;75.29;99238.53;4950560;28;20054;-68
2024/01/02 02:02:24;;;;;;;0.70;0.70;;;;;;;10.79;75.90;99232.50;4958619;28;20026;-68
2024/01/02 02:04:50;;;;;;;0.70;0.70;;;;;;;10.79;75.97;99226.34;4944841;28;20033;-67
2024/01/02 02:07:16;;;;;;;0.73;0.73;;;;;;;10.79;77.03;99221.84;4949332;29;20363;-67
2024/01/02 02:09:41;;;;;;;0.73;0.73;;;;;;;10.73;77.36;99215.94;4949068;29;20415;-68
2024/01/02 02:12:07;;;;;;;0.70;0.70;;;;;;;10.67;78.00;99208.28;4949819;29;20031;-69
2024/01/02 02:14:33;;;;;;;0.75;0.75;;;;;;;10.58;79.45;99202.44;4952134;28;20027;-69
2024/01/02 02:16:58;;;;;;;0.70;0.70;;;;;;;10.57;79.40;99199.84;4932054;29;20031;-68
2024/01/02 02:19:24;;;;;;;0.70;0.70;;;;;;;10.56;81.65;99201.63;4951301;28;20031;-69
2024/01/02 02:21:51;;;;;;;0.80;0.80;;;;;;;10.50;81.57;99195.75;4969739;28;20505;-66
2024/01/02 02:24:18;;;;;;;0.80;0.80;;;;;;;10.46;81.81;99188.84;4986781;28;20106;-69
2024/01/02 02:26:43;;;;;;;0.70;0.70;;;;;;;10.46;83.96;99184.38;4971971;28;20027;-68
2024/01/02 02:29:09;;;;;;;0.80;0.80;;;;;;;10.41;85.38;99183.72;4980510;28;20391;-70
2024/01/02 02:31:34;;;;;;;0.70;0.70;;;;;;;10.05;84.71;99129.53;4978249;28;20037;-67
2024/01/02 02:34:00;;;;;;;0.77;0.77;;;;;;;10.31;85.90;99158.47;4971563;28;20137;-67
2024/01/02 02:36:26;;;;;;;0.80;0.80;;;;;;;10.24;86.81;99169.47;4960635;28;20039;-69
2024/01/02 02:38:51;;;;;;;0.80;0.80;;;;;;;10.25;88.43;99166.75;4953322;28;20406;-67
2024/01/02 02:41:17;;;;;;;0.70;0.70;;;;;;;10.21;88.71;99166.94;4952046;29;20031;-69
2024/01/02 02:43:42;;;;;;;0.80;0.80;;;;;;;10.14;89.50;99162.84;4951557;29;20031;-68
2024/01/02 02:46:07;;;;;;;0.80;0.80;;;;;;;10.11;90.45;99158.53;4952938;28;20085;-68
2024/01/02 02:48:33;;;;;;;0.80;0.80;;;;;;;10.13;90.25;99156.66;4968712;28;20109;-67
2024/01/02 02:50:58;;;;;;;0.80;0.80;;;;;;;10.09;90.75;99149.75;4965920;28;20067;-69
2024/01/02 02:53:24;;;;;;;0.80;0.80;;;;;;;9.99;92.54;99159.03;4967909;28;20563;-68
2024/01/02 02:55:49;;;;;;;0.80;0.80;;;;;;;9.91;93.03;99153.19;4955163;28;20783;-68
2024/01/02 02:58:14;;;;;;;0.80;0.80;;;;;;;9.93;93.23;99146.03;4950539;28;20031;-68
2024/01/02 03:00:40;;;;;;;0.70;0.70;;;;;;;9.88;94.19;99145.38;4964609;28;20034;-67
2024/01/02 03:03:05;;;;;;;0.80;0.80;;;;;;;9.90;94.21;99135.50;4990204;28;20518;-67
2024/01/02 03:05:31;;;;;;;0.80;0.80;;;;;;;9.81;95.76;99127.97;4990254;28;20030;-68
2024/01/02 03:07:57;;;;;;;0.90;0.90;;;;;;;9.78;96.50;99116.59;4970354;28;20114;-68
2024/01/02 03:10:24;;;;;;;0.70;0.70;;;;;;;9.76;96.30;99106.06;4951917;28;20024;-66
2024/01/02 03:12:49;;;;;;;0.80;0.80;;;;;;;9.77;96.36;99113.06;4953464;28;20049;-68
2024/01/02 03:15:15;;;;;;;0.75;0.75;;;;;;;9.66;97.50;99083.47;4968600;28;20554;-68
2024/01/02 03:17:41;;;;;;;0.80;0.80;;;;;;;9.61;98.15;99079.28;4970412;28;20394;-68
2024/01/02 03:20:08;;;;;;;0.90;0.90;;;;;;;9.62;98.76;99071.25;4968760;28;20110;-67
2024/01/02 03:22:33;;;;;;;0.80;0.80;;;;;;;9.56;98.02;99068.88;4984340;28;20025;-68
2024/01/02 03:24:59;;;;;;;0.80;0.80;;;;;;;9.70;98.22;99065.63;4985214;28;20022;-68
2024/01/02 03:27:24;;;;;;;0.70;0.70;;;;;;;9.65;98.95;99047.25;4954645;28;20802;-68
2024/01/02 03:29:49;;;;;;;0.80;0.80;;;;;;;9.57;98.90;99028.13;4952288;29;20050;-68
2024/01/02 03:32:15;;;;;;;0.80;0.80;;;;;;;9.56;99.15;99046.78;4957811;28;20058;-67
2024/01/02 03:34:40;;;;;;;0.80;0.80;;;;;;;9.60;99.10;99021.84;4964590;28;20036;-68
2024/01/02 03:37:06;;;;;;;0.70;0.70;;;;;;;9.61;99.05;99031.50;4952624;28;20078;-68
2024/01/02 03:39:31;;;;;;;0.80;0.80;;;;;;;9.59;99.92;99026.25;4950963;29;20467;-66
2024/01/02 03:41:57;;;;;;;0.80;0.80;;;;;;;9.57;99.52;99028.13;4967937;28;20027;-67
2024/01/02 03:44:22;;;;;;;0.70;0.70;;;;;;;9.58;100.00;99024.56;4966885;28;20038;-67
2024/01/02 03:46:47;;;;;;;0.70;0.70;;;;;;;9.54;100.00;99022.94;4968986;28;20037;-66
2024/01/02 03:49:13;;;;;;;0.80;0.80;;;;;;;9.55;100.00;99027.34;4963420;28;20546;-66
2024/01/02 03:51:39;;;;;;;0.80;0.80;;;;;;;9.60;100.00;99022.69;4949860;29;20034;-66
2024/01/02 03:54:05;;;;;;;0.80;0.80;;;;;;;9.60;100.00;99028.00;4950109;29;20082;-67
2024/01/02 03:56:30;;;;;;;0.90;0.90;;;;;;;9.68;100.00;99023.22;4952047;28;20051;-68
2024/01/02 03:58:56;;;;;;;0.73;0.73;;;;;;;9.64;100.00;99024.28;4971731;28;20664;-67
2024/01/02 04:01:21;;;;;;;0.88;0.88;;;;;;;9.61;100.00;99021.75;4970229;28;20081;-67
2024/01/02 04:03:47;;;;;;;0.80;0.80;;;;;;;9.66;100.00;99011.78;4967330;28;20022;-68
2024/01/02 04:06:12;;;;;;;0.77;0.77;;;;;;;9.66;100.00;99011.78;4950701;29;20043;-66
2024/01/02 04:08:38;;;;;;;0.75;0.75;;;;;;;9.70;100.00;99012.53;4951057;29;20043;-67
2024/01/02 04:11:04;;;;;;;0.75;0.75;;;;;;;9.73;100.00;99007.94;4963463;28;20030;-67
2024/01/02 04:13:32;;;;;;;0.70;0.70;;;;;;;9.47;100.00;98965.78;4966594;28;20125;-67
2024/01/02 04:15:58;;;;;;;0.73;0.73;;;;;;;9.68;100.00;98987.81;4969586;28;20027;-66
2024/01/02 04:18:23;;;;;;;0.90;0.90;;;;;;;9.70;100.00;98970.91;4965574;28;20033;-67
2024/01/02 04:20:49;;;;;;;0.70;0.70;;;;;;;9.74;100.00;98979.56;4968076;28;20066;-66
2024/01/02 04:23:14;;;;;;;0.77;0.77;;;;;;;9.67;100.00;98952.44;4952648;28;20041;-67
2024/01/02 04:25:40;;;;;;;0.80;0.80;;;;;;;9.66;100.00;98953.38;4971036;28;20045;-67
2024/01/02 04:28:05;;;;;;;0.80;0.80;;;;;;;9.63;100.00;98940.25;4977951;28;20035;-67
2024/01/02 04:30:31;;;;;;;0.90;0.90;;;;;;;9.69;100.00;98947.94;4969774;28;20035;-66
2024/01/02 04:32:56;;;;;;;0.70;0.70;;;;;;;9.68;100.00;98930.28;4970131;28;20105;-66
2024/01/02 04:35:21;;;;;;;0.80;0.80;;;;;;;9.78;100.00;98931.59;4969026;28;20405;-66
2024/01/02 04:37:47;;;;;;;0.75;0.75;;;;;;;9.70;100.00;98916.94;4960754;28;20035;-66
2024/01/02 04:40:12;;;;;;;0.80;0.80;;;;;;;9.71;100.00;98924.84;4949010;29;20035;-66
2024/01/02 04:42:39;;;;;;;0.80;0.80;;;;;;;9.62;100.00;98901.34;4949104;29;20042;-66
2024/01/02 04:45:05;;;;;;;0.80;0.80;;;;;;;9.73;100.00;98930.06;4948805;29;20031;-66
2024/01/02 04:47:31;;;;;;;0.70;0.70;;;;;;;9.69;100.00;98934.66;4955434;28;20038;-66
2024/01/02 04:49:57;;;;;;;0.90;0.90;;;;;;;9.75;100.00;98920.25;4968401;28;20036;-67
2024/01/02 04:52:23;;;;;;;0.70;0.70;;;;;;;9.45;100.00;98882.72;4964934;28;20027;-65
2024/01/02 04:54:48;;;;;;;0.80;0.80;;;;;;;9.79;100.00;98917.38;4953767;28;20034;-66
2024/01/02 04:57:15;;;;;;;0.80;0.80;;;;;;;9.42;99.95;98847.47;4969411;28;20035;-66
2024/01/02 04:59:41;;;;;;;0.70;0.70;;;;;;;9.82;100.00;98906.59;4969176;28;20108;-66
2024/01/02 05:02:06;;;;;;;0.90;0.90;;;;;;;9.86;99.75;98900.22;4964805;28;20105;-67
2024/01/02 05:04:33;;;;;;;0.70;0.70;;;;;;;9.87;99.70;98880.69;4969843;28;20082;-66
2024/01/02 05:06:59;;;;;;;0.80;0.80;;;;;;;9.86;99.23;98886.94;4964506;28;20027;-66
2024/01/02 05:09:24;;;;;;;0.80;0.80;;;;;;;9.85;99.88;98893.16;4950460;29;20031;-67
2024/01/02 05:11:49;;;;;;;0.70;0.70;;;;;;;9.83;99.71;98891.53;4964995;28;20027;-64
2024/01/02 05:14:17;;;;;;;0.80;0.80;;;;;;;9.93;99.51;98880.41;4949081;29;20470;-66
2024/01/02 05:16:42;;;;;;;0.80;0.80;;;;;;;9.93;99.37;98877.75;4950543;28;20027;-67
2024/01/02 05:19:07;;;;;;;0.60;0.60;;;;;;;9.97;99.65;98881.97;4956935;28;20103;-67
2024/01/02 05:21:33;;;;;;;0.80;0.80;;;;;;;10.00;99.48;98878.31;4949631;29;20029;-66
2024/01/02 05:23:58;;;;;;;0.80;0.80;;;;;;;9.97;100.00;98874.00;4952211;28;20033;-67
2024/01/02 05:26:24;;;;;;;0.70;0.70;;;;;;;10.03;99.78;98879.00;4948494;28;20163;-66
2024/01/02 05:28:49;;;;;;;0.70;0.70;;;;;;;9.95;100.00;98865.22;4949487;29;20117;-66
2024/01/02 05:31:14;;;;;;;0.80;0.80;;;;;;;10.01;100.00;98872.94;4949344;29;20027;-66
2024/01/02 05:33:40;;;;;;;0.70;0.70;;;;;;;9.95;100.00;98865.22;4941460;28;20096;-66
2024/01/02 05:36:05;;;;;;;0.70;0.70;;;;;;;9.96;100.00;98864.31;4970127;28;20137;-66
2024/01/02 05:38:31;;;;;;;0.80;0.80;;;;;;;9.95;100.00;98843.97;4986888;28;20029;-67
2024/01/02 05:40:56;;;;;;;0.77;0.77;;;;;;;9.91;100.00;98842.44;4984119;28;20125;-67
2024/01/02 05:43:22;;;;;;;0.80;0.80;;;;;;;9.91;100.00;98847.75;4969168;28;20035;-66
2024/01/02 05:45:47;;;;;;;0.80;0.80;;;;;;;9.90;100.00;98845.16;4967530;28;20027;-66
2024/01/02 05:48:12;;;;;;;0.80;0.80;;;;;;;9.93;100.00;98827.28;4964475;28;20033;-66
2024/01/02 05:50:38;;;;;;;0.80;0.80;;;;;;;9.97;100.00;98836.81;4969125;28;20502;-66
2024/01/02 05:53:03;;;;;;;0.80;0.80;;;;;;;9.94;100.00;98825.47;4951679;28;20082;-66
2024/01/02 05:55:29;;;;;;;0.70;0.70;;;;;;;9.95;100.00;98836.00;4949269;28;20523;-65
2024/01/02 05:57:54;;;;;;;0.70;0.70;;;;;;;9.93;100.00;98829.94;4930421;29;20076;-65
2024/01/02 06:00:20;;;;;;;0.60;0.60;;;;;;;9.96;100.00;98828.91;4940844;28;20026;-66
2024/01/02 06:02:46;;;;;;;0.70;0.70;;;;;;;10.03;100.00;98831.19;4951823;29;20065;-66
2024/01/02 06:05:11;;;;;;;0.80;0.80;;;;;;;10.00;100.00;98831.34;4955061;28;20558;-66
2024/01/02 06:07:37;;;;;;;0.68;0.68;;;;;;;9.99;100.00;98837.59;4951082;29;20720;-66
2024/01/02 06:10:02;;;;;;;0.80;0.80;;;;;;;10.03;100.00;98820.56;4953469;29;20039;-66
2024/01/02 06:12:28;;;;;;;0.70;0.70;;;;;;;10.02;100.00;98821.50;4953205;29;20038;-66
2024/01/02 06:14:53;;;;;;;0.80;0.80;;;;;;;9.88;100.00;98788.59;4952789;29;20027;-66
2024/01/02 06:17:19;;;;;;;0.60;0.60;;;;;;;10.04;100.00;98806.34;4931716;28;20019;-66
2024/01/02 06:19:44;;;;;;;0.90;0.90;;;;;;;10.07;100.00;98806.19;4971480;28;20026;-66
2024/01/02 06:22:09;;;;;;;0.70;0.70;;;;;;;10.09;100.00;98803.50;4956346;28;20030;-65
2024/01/02 06:24:35;;;;;;;0.70;0.70;;;;;;;10.05;100.00;98792.13;4931951;29;20463;-65
2024/01/02 06:27:00;;;;;;;0.80;0.80;;;;;;;10.06;100.00;98809.81;4914040;29;20036;-67
2024/01/02 06:29:26;;;;;;;0.80;0.80;;;;;;;10.08;100.00;98797.31;4953192;28;20033;-65
2024/01/02 06:31:51;;;;;;;0.70;0.70;;;;;;;10.04;100.00;98795.72;4954970;28;20481;-66
2024/01/02 06:34:17;;;;;;;0.73;0.73;;;;;;;10.12;100.00;98784.75;4954079;28;20135;-63
2024/01/02 06:36:42;;;;;;;0.80;0.80;;;;;;;10.12;100.00;98795.38;4948153;28;20083;-62
2024/01/02 06:39:07;;;;;;;0.80;0.80;;;;;;;10.03;100.00;98785.19;4951866;29;20027;-63
2024/01/02 06:41:33;;;;;;;0.80;0.80;;;;;;;10.09;100.00;98785.78;4951514;29;20075;-62
2024/01/02 06:43:58;;;;;;;0.80;0.80;;;;;;;10.13;100.00;98803.25;4951440;29;20035;-63
2024/01/02 06:46:23;;;;;;;0.80;0.80;;;;;;;10.12;100.00;98793.59;4947357;29;20406;-63
2024/01/02 06:48:49;;;;;;;0.80;0.80;;;;;;;10.08;100.00;98773.41;4952084;29;20031;-62
2024/01/02 06:51:14;;;;;;;0.75;0.75;;;;;;;10.08;100.00;98801.78;4951955;29;20027;-62
2024/01/02 06:53:40;;;;;;;0.77;0.77;;;;;;;10.13;100.00;98800.59;4949352;29;20023;-63
2024/01/02 06:56:06;;;;;;;0.80;0.80;;;;;;;10.12;100.00;98798.03;4933705;29;20472;-63
2024/01/02 06:58:31;;;;;;;0.80;0.80;;;;;;;10.09;100.00;98807.03;4930970;29;20042;-63
2024/01/02 07:00:57;;;;;;;0.80;0.80;;;;;;;10.13;100.00;98811.22;4932484;28;20487;-63
2024/01/02 07:03:22;;;;;;;0.70;0.70;;;;;;;10.17;100.00;98810.16;4950613;28;20030;-63
2024/01/02 07:05:48;;;;;;;0.70;0.70;;;;;;;10.14;100.00;98812.97;4932330;29;20035;-63
2024/01/02 07:08:13;;;;;;;0.70;0.70;;;;;;;10.09;100.00;98815.00;4931765;29;20059;-64
2024/01/02 07:10:38;;;;;;;0.73;0.73;;;;;;;10.19;100.00;98829.53;4931214;29;20539;-62
2024/01/02 07:13:04;;;;;;;0.80;0.80;;;;;;;10.21;100.00;98832.97;4951569;29;20120;-63
2024/01/02 07:15:29;;;;;;;0.80;0.80;;;;;;;10.20;100.00;98833.91;4926099;29;20038;-63
2024/01/02 07:17:55;;;;;;;0.80;0.80;;;;;;;10.18;100.00;98835.78;4939649;29;20480;-63
2024/01/02 07:20:20;;;;;;;0.80;0.80;;;;;;;10.17;100.00;98839.38;4949832;29;20031;-63
2024/01/02 07:22:47;;;;;;;0.80;0.80;;;;;;;10.20;100.00;98839.22;4933627;29;20028;-63
2024/01/02 07:25:14;;;;;;;0.80;0.80;;;;;;;10.21;100.00;98830.31;4931439;29;20027;-63
2024/01/02 07:27:39;;;;;;;0.70;0.70;;;;;;;10.24;100.00;98846.13;4933075;29;20031;-63
2024/01/02 07:30:05;;;;;;;0.70;0.70;;;;;;;10.23;100.00;98860.31;4932425;28;20053;-62
2024/01/02 07:32:30;;;;;;;0.70;0.70;;;;;;;10.25;100.00;98866.44;4963287;28;20034;-64
2024/01/02 07:34:56;;;;;;;0.80;0.80;;;;;;;10.26;100.00;98860.16;4949545;29;20485;-63
2024/01/02 07:37:21;;;;;;;0.70;0.70;;;;;;;10.22;100.00;98869.25;4951147;29;20090;-63
2024/01/02 07:39:47;;;;;;;0.80;0.80;;;;;;;10.24;100.00;98872.69;4952249;28;20034;-62
2024/01/02 07:42:12;;;;;;;0.70;0.70;;;;;;;10.27;100.00;98876.97;4949008;28;20038;-63
2024/01/02 07:44:38;;;;;;;0.70;0.70;;;;;;;10.26;100.00;98876.13;4932898;29;20051;-66
2024/01/02 07:47:03;;;;;;;0.70;0.70;;;;;;;10.14;100.00;98844.84;4934889;29;20046;-67
2024/01/02 07:49:29;;;;;;;0.70;0.70;;;;;;;10.32;100.00;98886.47;4920363;29;20035;-66
2024/01/02 07:51:54;;;;;;;0.70;0.70;;;;;;;10.32;100.00;98875.84;4932415;29;20032;-66
2024/01/02 07:54:20;;;;;;;0.70;0.70;;;;;;;10.33;100.00;98877.53;4932422;29;20027;-65
2024/01/02 07:56:46;;;;;;;0.70;0.70;;;;;;;10.32;100.00;98877.63;4949761;29;20055;-66
2024/01/02 07:59:15;;;;;;;0.70;0.70;;;;;;;10.37;100.00;98879.13;4952757;28;20102;-66
2024/01/02 08:01:41;;;;;;;0.70;0.70;;;;;;;10.36;100.00;98885.34;4966599;28;20063;-66
2024/01/02 08:04:06;;;;;;;0.70;0.70;;;;;;;10.02;100.00;98832.13;4966327;28;20086;-66
2024/01/02 08:06:32;;;;;;;0.70;0.70;;;;;;;10.34;100.00;98887.25;4958382;28;20038;-66
2024/01/02 08:08:57;;;;;;;0.80;0.80;;;;;;;10.37;100.00;98895.06;4952408;28;20035;-66
2024/01/02 08:11:22;;;;;;;0.70;0.70;;;;;;;10.27;100.00;98861.91;4950925;29;20027;-66
2024/01/02 08:13:48;;;;;;;0.80;0.80;;;;;;;10.45;100.00;98892.88;4964107;28;20054;-66
2024/01/02 08:16:13;;;;;;;0.77;0.77;;;;;;;10.43;100.00;98877.94;4988298;28;20110;-67
2024/01/02 08:18:43;;;;;;;0.80;0.80;;;;;;;10.44;100.00;98880.50;4981475;28;20099;-66
2024/01/02 08:21:08;;;;;;;0.80;0.80;;;;;;;10.46;100.00;98878.66;4948291;28;20574;-66
2024/01/02 08:23:36;;;;;;;0.80;0.80;;;;;;;10.45;100.00;98874.28;4931101;29;20091;-66
2024/01/02 08:26:03;;;;;;;0.70;0.70;;;;;;;10.18;100.00;98835.78;4960121;28;20034;-66
2024/01/02 08:28:28;;;;;;;0.70;0.70;;;;;;;10.42;100.00;98871.78;4968179;28;20019;-66
2024/01/02 08:30:53;;;;;;;0.70;0.70;;;;;;;10.46;100.00;98883.97;4964890;28;20030;-66
2024/01/02 08:33:19;;;;;;;0.70;0.70;;;;;;;10.45;100.00;98861.00;4973848;28;20121;-66
2024/01/02 08:35:44;;;;;;;0.70;0.70;;;;;;;10.45;100.00;98868.97;4989508;28;20033;-66
2024/01/02 08:38:10;;;;;;;0.70;0.70;;;;;;;10.43;100.00;98864.66;4988906;28;20023;-67
2024/01/02 08:40:35;;;;;;;0.70;0.70;;;;;;;10.42;100.00;98877.09;4984342;28;20022;-67
2024/01/02 08:43:01;;;;;;;0.80;0.80;;;;;;;10.23;100.00;98838.22;4969458;28;20018;-67
2024/01/02 08:45:27;;;;;;;0.80;0.80;;;;;;;10.44;100.00;98855.75;4972083;28;20569;-67
2024/01/02 08:47:52;;;;;;;0.80;0.80;;;;;;;10.47;100.00;98874.19;4988779;28;20040;-66
2024/01/02 08:50:18;;;;;;;0.70;0.70;;;;;;;10.53;100.00;98868.56;4981311;28;20022;-66
2024/01/02 08:52:47;;;;;;;0.80;0.80;;;;;;;10.51;100.00;98879.28;4965959;28;20039;-66
2024/01/02 08:55:13;;;;;;;0.70;0.70;;;;;;;10.56;100.00;98879.91;4959675;28;20138;-66
2024/01/02 08:57:38;;;;;;;0.70;0.70;;;;;;;10.59;100.00;98878.91;4940233;28;20043;-66
2024/01/02 09:00:07;;;;;;;0.70;0.70;;;;;;;10.56;100.00;98877.25;4946506;29;20023;-66
2024/01/02 09:02:32;;;;;;;0.80;0.80;;;;;;;10.60;100.00;98876.16;4945047;29;20086;-66
2024/01/02 09:04:58;;;;;;;0.70;0.70;;;;;;;10.62;100.00;98878.75;4950233;29;20446;-66
2024/01/02 09:07:23;;;;;;;0.70;0.70;;;;;;;10.58;100.00;98888.66;4949435;28;20031;-66
2024/01/02 09:09:49;;;;;;;0.60;0.60;;;;;;;10.43;100.00;98849.56;4949414;29;20478;-66
2024/01/02 09:12:15;;;;;;;0.70;0.70;;;;;;;10.64;100.00;98883.03;4949611;29;20038;-66
2024/01/02 09:14:40;;;;;;;0.70;0.70;;;;;;;10.69;100.00;98889.94;4926674;29;20396;-66
2024/01/02 09:17:06;;;;;;;0.80;0.80;;;;;;;10.67;100.00;98889.13;4929755;29;20031;-67
2024/01/02 09:19:32;;;;;;;0.70;0.70;;;;;;;10.67;100.00;98886.47;4929633;29;20047;-66
2024/01/02 09:21:57;;;;;;;0.80;0.80;;;;;;;10.30;100.00;98819.22;4940370;29;20042;-67
2024/01/02 09:24:23;;;;;;;0.80;0.80;;;;;;;10.64;100.00;98887.50;4940453;29;20031;-66
2024/01/02 09:26:51;;;;;;;0.80;0.80;;;;;;;10.68;100.00;98882.88;4929473;29;20028;-67
2024/01/02 09:29:17;;;;;;;0.80;0.80;;;;;;;10.46;100.00;98844.09;4931451;29;20051;-66
2024/01/02 09:31:43;;;;;;;0.80;0.80;;;;;;;10.69;100.00;98882.81;4935265;28;20443;-66
2024/01/02 09:34:10;;;;;;;0.80;0.80;;;;;;;10.77;100.00;98885.06;4970045;28;20109;-67
2024/01/02 09:36:36;;;;;;;0.80;0.80;;;;;;;10.75;100.00;98878.97;4961526;28;20023;-66
2024/01/02 09:39:01;;;;;;;0.80;0.80;;;;;;;10.62;100.00;98852.16;4953610;29;20102;-66
2024/01/02 09:41:48;;;;;;;0.70;0.70;;;;;;;10.77;100.00;98879.75;4954162;29;20501;-66
2024/01/02 09:44:56;;;;;;;0.80;0.80;;;;;;;10.81;100.00;98878.69;4954063;28;20060;-67
2024/01/02 09:47:37;;;;;;;0.75;0.75;;;;;;;10.83;100.00;98885.63;4874513;29;20494;-66
2024/01/02 09:50:12;;;;;;;0.80;0.80;;;;;;;10.85;100.00;98881.09;4931801;29;20146;-67
2024/01/02 09:52:45;;;;;;;0.70;0.70;;;;;;;10.85;100.00;98874.91;4934604;29;20087;-66
2024/01/02 09:55:27;;;;;;;0.70;0.70;;;;;;;10.87;100.00;98879.22;4940039;28;20534;-66
2024/01/02 09:57:59;;;;;;;0.60;0.60;;;;;;;10.88;100.00;98870.28;4949230;29;20034;-67
2024/01/02 10:00:45;;;;;;;0.70;0.70;;;;;;;10.88;100.00;98874.72;4953020;29;20026;-67
2024/01/02 10:03:17;;;;;;;0.70;0.70;;;;;;;10.95;100.00;98873.47;4953303;29;20033;-67
2024/01/02 10:05:49;;;;;;;0.70;0.70;;;;;;;10.95;100.00;98863.72;4945827;29;20043;-63
2024/01/02 10:08:32;;;;;;;0.60;0.60;;;;;;;10.99;100.00;98861.75;4937837;28;20534;-63
2024/01/02 10:11:20;;;;;;;0.70;0.70;;;;;;;10.98;100.00;98855.56;4932705;29;20035;-63
2024/01/02 10:13:48;;;;;;;0.70;0.70;;;;;;;11.00;100.00;98855.47;4932849;29;20417;-63
2024/01/02 10:16:52;;;;;;;0.80;0.80;;;;;;;11.04;100.00;98846.38;4946752;29;20034;-63
2024/01/02 10:19:32;;;;;;;0.60;0.60;;;;;;;11.06;100.00;98844.50;4952323;29;20087;-63
2024/01/02 10:22:04;;;;;;;0.70;0.70;;;;;;;11.08;100.00;98845.28;4952285;28;20518;-63
2024/01/02 10:24:50;;;;;;;0.68;0.68;;;;;;;11.08;100.00;98837.31;4947376;28;20047;-63
2024/01/02 10:27:21;;;;;;;0.80;0.80;;;;;;;11.11;100.00;98829.16;4933605;29;20518;-62
2024/01/02 10:29:58;;;;;;;0.65;0.65;;;;;;;11.17;100.00;98818.19;4950874;28;20038;-63
2024/01/02 10:33:09;;;;;;;0.70;0.70;;;;;;;11.14;100.00;98810.34;4933522;28;20502;-63
2024/01/02 10:35:45;;;;;;;0.80;0.80;;;;;;;10.95;100.00;98778.56;4933875;28;20100;-63
2024/01/02 10:38:20;;;;;;;0.70;0.70;;;;;;;11.20;100.00;98807.38;4938413;29;20031;-63
2024/01/02 10:40:50;;;;;;;0.80;0.80;;;;;;;11.23;100.00;98792.09;4952895;29;20509;-63
2024/01/02 10:43:27;;;;;;;0.70;0.70;;;;;;;11.20;100.00;98786.09;4952097;29;20042;-64
2024/01/02 10:46:02;;;;;;;0.70;0.70;;;;;;;11.28;100.00;98775.88;4950611;28;20027;-64
2024/01/02 10:48:36;;;;;;;0.77;0.77;;;;;;;11.28;100.00;98789.19;4952456;29;20031;-63
2024/01/02 10:51:13;;;;;;;0.70;0.70;;;;;;;11.07;100.00;98730.00;4952733;29;20046;-63
2024/01/02 10:53:55;;;;;;;0.70;0.70;;;;;;;11.29;100.00;98764.28;4948911;29;20027;-63
2024/01/02 10:56:38;;;;;;;0.70;0.70;;;;;;;11.33;100.00;98756.06;4952059;28;20055;-63
2024/01/02 10:59:12;;;;;;;0.70;0.70;;;;;;;11.43;100.00;98754.56;4949170;28;20023;-63
2024/01/02 11:01:40;;;;;;;0.80;0.80;;;;;;;11.42;100.00;98754.66;4952108;29;20039;-63
2024/01/02 11:04:46;;;;;;;0.70;0.70;;;;;;;11.44;100.00;98742.13;4946835;29;20042;-64
2024/01/02 11:07:16;;;;;;;0.80;0.80;;;;;;;11.43;100.00;98729.78;4854815;29;20053;-64
2024/01/02 11:09:54;;;;;;;0.70;0.70;;;;;;;11.50;100.00;98724.00;4932656;29;20114;-63
2024/01/02 11:12:22;;;;;;;0.70;0.70;;;;;;;11.54;100.00;98717.56;4950455;29;20035;-63
2024/01/02 11:14:50;;;;;;;0.77;0.77;;;;;;;11.52;100.00;98718.59;4950984;29;20027;-63
2024/01/02 11:17:17;;;;;;;0.80;0.80;;;;;;;11.55;100.00;98697.09;4950532;29;20046;-64
2024/01/02 11:20:01;;;;;;;0.80;0.80;;;;;;;11.58;100.00;98691.63;4943282;29;20110;-63
2024/01/02 11:22:50;;;;;;;0.80;0.80;;;;;;;11.63;100.00;98685.09;4932835;29;20054;-63
2024/01/02 11:25:21;;;;;;;0.70;0.70;;;;;;;11.63;100.00;98700.22;4937458;29;20526;-63
2024/01/02 11:27:51;;;;;;;0.70;0.70;;;;;;;11.60;100.00;98695.91;4950127;29;20039;-64
2024/01/02 11:30:17;;;;;;;0.70;0.70;;;;;;;11.69;100.00;98687.44;4952066;29;20035;-63
2024/01/02 11:32:59;;;;;;;0.80;0.80;;;;;;;11.75;100.00;98688.84;4951444;29;20034;-63